createdAt,value
2023-03-02T00:01:36.787Z,84.20
2023-03-02T00:04:06.510Z,83.17
2023-03-02T00:06:35.869Z,83.48
2023-03-02T00:09:05.046Z,83.40
2023-03-02T00:11:35.810Z,84.21
2023-03-02T00:14:02.665Z,84.66
2023-03-02T00:16:29.738Z,85.47
2023-03-02T00:18:56.707Z,84.98
2023-03-02T00:21:24.713Z,83.76
2023-03-02T00:23:53.005Z,83.32
2023-03-02T00:26:20.936Z,83.34
2023-03-02T00:28:47.932Z,83.27
2023-03-02T00:31:14.919Z,83.81
2023-03-02T00:33:41.869Z,84.35
2023-03-02T00:36:19.529Z,84.19
2023-03-02T00:38:46.508Z,83.96
2023-03-02T00:41:15.066Z,83.74
2023-03-02T00:43:42.662Z,83.88
2023-03-02T00:46:11.752Z,83.57
2023-03-02T00:48:38.990Z,84.06
2023-03-02T00:51:07.289Z,84.96
2023-03-02T00:53:35.656Z,83.69
2023-03-02T00:56:03.260Z,84.46
2023-03-02T00:58:31.137Z,83.71
2023-03-02T01:00:59.136Z,83.83
2023-03-02T01:03:26.187Z,84.23
2023-03-02T01:05:56.632Z,84.09
2023-03-02T01:08:25.241Z,83.93
2023-03-02T01:10:54.303Z,84.16
2023-03-02T01:13:21.520Z,84.93
2023-03-02T01:15:48.513Z,84.94
2023-03-02T01:18:15.435Z,85.22
2023-03-02T01:20:42.570Z,85.09
2023-03-02T01:23:09.385Z,86.40
2023-03-02T01:25:36.758Z,84.75
2023-03-02T01:28:03.886Z,85.95
2023-03-02T01:30:30.723Z,85.24
2023-03-02T01:32:57.582Z,84.70
2023-03-02T01:35:24.613Z,84.42
2023-03-02T01:37:51.405Z,84.06
2023-03-02T01:40:18.420Z,83.94
2023-03-02T01:42:57.685Z,84.09
2023-03-02T01:46:09.200Z,83.81
2023-03-02T01:48:50.784Z,83.75
2023-03-02T01:51:21.495Z,83.47
2023-03-02T01:53:54.600Z,83.06
2023-03-02T01:56:27.322Z,85.21
2023-03-02T01:59:02.204Z,84.93
2023-03-02T02:01:50.715Z,85.94
2023-03-02T02:04:18.433Z,87.79
2023-03-02T02:06:52.768Z,87.43
2023-03-02T02:09:22.825Z,87.93
2023-03-02T02:11:52.141Z,86.55
2023-03-02T02:14:19.042Z,88.26
2023-03-02T02:16:46.429Z,87.69
2023-03-02T02:19:27.226Z,87.16
2023-03-02T02:21:54.135Z,87.03
2023-03-02T02:24:57.476Z,86.74
2023-03-02T02:27:30.744Z,87.69
2023-03-02T02:29:58.741Z,87.81
2023-03-02T02:32:34.323Z,87.20
2023-03-02T02:35:19.974Z,86.50
2023-03-02T02:37:55.188Z,87.06
2023-03-02T02:40:51.828Z,87.31
2023-03-02T02:43:21.547Z,87.49
2023-03-02T02:45:52.139Z,88.17
2023-03-02T02:48:24.513Z,90.58
2023-03-02T02:51:00.648Z,90.69
2023-03-02T02:54:01.298Z,90.13
2023-03-02T02:56:37.230Z,89.90
2023-03-02T02:59:14.278Z,90.76
2023-03-02T03:01:41.495Z,90.54
2023-03-02T03:04:14.827Z,91.37
2023-03-02T03:06:52.270Z,92.24
2023-03-02T03:09:19.219Z,93.55
2023-03-02T03:11:50.540Z,93.19
2023-03-02T03:14:23.199Z,93.39
2023-03-02T03:16:51.205Z,91.87
2023-03-02T03:19:28.339Z,91.04
2023-03-02T03:21:58.383Z,90.75
2023-03-02T03:24:27.896Z,90.23
2023-03-02T03:26:58.432Z,90.42
2023-03-02T03:29:27.444Z,89.26
2023-03-02T03:31:56.540Z,89.62
2023-03-02T03:34:25.909Z,90.47
2023-03-02T03:36:53.502Z,89.30
2023-03-02T03:39:21.009Z,89.45
2023-03-02T03:41:47.883Z,90.35
2023-03-02T03:44:14.829Z,89.94
2023-03-02T03:46:41.659Z,90.84
2023-03-02T03:49:08.570Z,90.21
2023-03-02T03:51:35.748Z,90.84
2023-03-02T03:54:08.688Z,91.06
2023-03-02T03:56:42.108Z,90.63
2023-03-02T03:59:12.620Z,91.04
2023-03-02T04:01:46.736Z,91.72
2023-03-02T04:04:20.728Z,91.79
2023-03-02T04:06:47.885Z,93.70
2023-03-02T04:09:15.846Z,92.89
2023-03-02T04:11:44.062Z,91.85
2023-03-02T04:14:11.787Z,94.25
2023-03-02T04:16:39.844Z,94.50
2023-03-02T04:19:11.236Z,94.68
2023-03-02T04:21:45.660Z,94.68
2023-03-02T04:24:14.918Z,94.00
2023-03-02T04:26:43.070Z,94.94
2023-03-02T04:29:11.161Z,95.52
2023-03-02T04:31:38.631Z,94.39
2023-03-02T04:34:06.380Z,94.66
2023-03-02T04:36:36.874Z,94.36
2023-03-02T04:39:05.508Z,94.81
2023-03-02T04:41:32.776Z,93.97
2023-03-02T04:43:59.690Z,93.30
2023-03-02T04:46:27.859Z,93.71
2023-03-02T04:48:55.392Z,93.17
2023-03-02T04:51:27.956Z,93.84
2023-03-02T04:53:58.027Z,93.88
2023-03-02T04:56:25.464Z,93.30
2023-03-02T04:58:52.591Z,93.50
2023-03-02T05:01:20.419Z,93.62
2023-03-02T05:03:47.920Z,93.83
2023-03-02T05:06:15.705Z,94.31
2023-03-02T05:08:43.279Z,94.07
2023-03-02T05:11:22.640Z,94.24
2023-03-02T05:13:55.221Z,94.58
2023-03-02T05:16:24.705Z,95.56
2023-03-02T05:18:51.624Z,95.38
2023-03-02T05:21:19.319Z,95.49
2023-03-02T05:23:46.643Z,96.15
2023-03-02T05:26:14.399Z,95.21
2023-03-02T05:28:43.443Z,94.90
2023-03-02T05:31:24.067Z,94.43
2023-03-02T05:33:50.995Z,93.38
2023-03-02T05:36:19.548Z,94.19
2023-03-02T05:38:47.719Z,95.02
2023-03-02T05:41:14.667Z,94.53
2023-03-02T05:43:42.921Z,94.74
2023-03-02T05:46:09.861Z,95.06
2023-03-02T05:48:37.029Z,94.80
2023-03-02T05:51:04.231Z,94.90
2023-03-02T05:53:31.433Z,94.55
2023-03-02T05:55:58.950Z,95.29
2023-03-02T05:58:25.747Z,95.44
2023-03-02T06:00:52.847Z,95.29
2023-03-02T06:03:19.885Z,94.57
2023-03-02T06:05:52.553Z,93.93
2023-03-02T06:08:21.637Z,93.55
2023-03-02T06:10:50.965Z,94.28
2023-03-02T06:13:18.205Z,94.60
2023-03-02T06:15:45.970Z,94.04
2023-03-02T06:18:13.947Z,94.00
2023-03-02T06:20:42.149Z,94.54
2023-03-02T06:23:09.258Z,93.50
2023-03-02T06:25:37.173Z,93.84
2023-03-02T06:28:04.435Z,92.56
2023-03-02T06:30:31.761Z,92.60
2023-03-02T06:33:00.233Z,93.68
2023-03-02T06:35:27.185Z,92.83
2023-03-02T06:37:54.251Z,92.35
2023-03-02T06:40:21.997Z,91.93
2023-03-02T06:42:48.891Z,91.89
2023-03-02T06:45:16.134Z,90.86
2023-03-02T06:47:42.971Z,90.87
2023-03-02T06:50:11.030Z,91.21
2023-03-02T06:52:38.270Z,91.01
2023-03-02T06:55:05.899Z,90.96
2023-03-02T06:57:35.831Z,89.69
2023-03-02T07:00:18.551Z,90.68
2023-03-02T07:02:45.625Z,90.07
2023-03-02T07:05:13.501Z,90.07
2023-03-02T07:07:40.454Z,89.47
2023-03-02T07:10:08.381Z,89.03
2023-03-02T07:12:36.131Z,89.52
2023-03-02T07:15:04.164Z,88.74
2023-03-02T07:17:31.110Z,90.06
2023-03-02T07:19:58.402Z,90.74
2023-03-02T07:22:27.188Z,90.36
2023-03-02T07:24:54.046Z,87.04
2023-03-02T07:27:20.858Z,87.64
2023-03-02T07:29:47.876Z,87.50
2023-03-02T07:32:15.088Z,86.49
2023-03-02T07:34:42.054Z,86.97
2023-03-02T07:37:10.575Z,87.05
2023-03-02T07:39:37.428Z,86.88
2023-03-02T07:42:04.677Z,87.80
2023-03-02T07:44:32.089Z,87.12
2023-03-02T07:46:59.106Z,88.01
2023-03-02T07:49:26.656Z,86.24
2023-03-02T07:51:56.298Z,85.88
2023-03-02T07:54:26.881Z,86.67
2023-03-02T07:56:53.858Z,86.62
2023-03-02T07:59:21.878Z,87.05
2023-03-02T08:01:49.356Z,86.45
2023-03-02T08:04:16.378Z,87.10
2023-03-02T08:06:43.560Z,86.00
2023-03-02T08:09:10.650Z,86.31
2023-03-02T08:11:37.544Z,86.62
2023-03-02T08:14:04.615Z,86.19
2023-03-02T08:16:31.687Z,87.13
2023-03-02T08:18:59.910Z,86.16
2023-03-02T08:21:28.795Z,87.49
2023-03-02T08:23:55.831Z,86.51
2023-03-02T08:26:23.058Z,86.60
2023-03-02T08:28:50.062Z,87.20
2023-03-02T08:31:17.247Z,87.69
2023-03-02T08:33:46.397Z,88.11
2023-03-02T08:36:17.897Z,88.62
2023-03-02T08:38:45.393Z,87.47
2023-03-02T08:41:19.851Z,87.91
2023-03-02T08:43:47.765Z,85.37
2023-03-02T08:46:16.502Z,85.41
2023-03-02T08:48:44.456Z,85.43
2023-03-02T08:51:17.478Z,85.31
2023-03-02T08:54:02.899Z,84.58
2023-03-02T08:56:33.105Z,83.90
2023-03-02T08:59:03.034Z,83.61
2023-03-02T09:01:32.931Z,84.31
2023-03-02T09:04:01.024Z,84.34
2023-03-02T09:06:30.121Z,83.00
2023-03-02T09:08:57.996Z,82.63
2023-03-02T09:11:25.488Z,82.69
2023-03-02T09:13:52.879Z,83.43
2023-03-02T09:16:20.661Z,83.05
2023-03-02T09:18:48.359Z,84.37
2023-03-02T09:21:15.556Z,83.15
2023-03-02T09:23:42.641Z,81.64
2023-03-02T09:26:09.871Z,81.35
2023-03-02T09:28:37.769Z,79.80
2023-03-02T09:31:07.177Z,79.29
2023-03-02T09:33:34.976Z,78.90
2023-03-02T09:36:10.131Z,79.39
2023-03-02T09:38:37.229Z,78.79
2023-03-02T09:41:20.422Z,78.06
2023-03-02T09:44:09.983Z,77.49
2023-03-02T09:46:50.920Z,79.95
2023-03-02T09:49:35.892Z,79.17
2023-03-02T09:52:08.669Z,77.55
2023-03-02T09:54:38.243Z,78.29
2023-03-02T09:57:23.048Z,77.17
2023-03-02T10:00:19.022Z,78.49
2023-03-02T10:02:47.443Z,77.46
2023-03-02T10:05:29.685Z,79.29
2023-03-02T10:08:00.007Z,78.59
2023-03-02T10:10:37.599Z,76.81
2023-03-02T10:13:36.578Z,78.06
2023-03-02T10:16:24.211Z,77.98
2023-03-02T10:19:12.809Z,77.70
2023-03-02T10:21:43.185Z,77.02
2023-03-02T10:24:46.242Z,76.67
2023-03-02T10:27:18.132Z,74.07
2023-03-02T10:29:51.382Z,75.54
2023-03-02T10:32:30.454Z,75.70
2023-03-02T10:35:02.745Z,76.51
2023-03-02T10:37:31.520Z,75.73
2023-03-02T10:39:58.409Z,75.27
2023-03-02T10:42:38.183Z,74.83
2023-03-02T10:45:31.507Z,75.46
2023-03-02T10:48:07.983Z,75.16
2023-03-02T10:50:35.611Z,73.57
2023-03-02T10:53:09.214Z,74.18
2023-03-02T10:55:36.128Z,72.97
2023-03-02T10:58:21.307Z,70.53
2023-03-02T11:01:18.546Z,71.90
2023-03-02T11:03:57.922Z,71.17
2023-03-02T11:06:25.648Z,71.42
2023-03-02T11:09:19.880Z,71.36
2023-03-02T11:11:56.284Z,70.76
2023-03-02T11:14:25.882Z,72.46
2023-03-02T11:16:53.408Z,71.64
2023-03-02T11:19:41.544Z,72.57
2023-03-02T11:22:23.496Z,72.14
2023-03-02T11:24:56.133Z,73.54
2023-03-02T11:27:29.634Z,72.71
2023-03-02T11:30:04.466Z,72.88
2023-03-02T11:33:00.448Z,71.80
2023-03-02T11:35:53.190Z,73.36
2023-03-02T11:38:26.797Z,73.84
2023-03-02T11:41:03.517Z,73.77
2023-03-02T11:43:30.750Z,73.70
2023-03-02T11:46:10.941Z,73.19
2023-03-02T11:48:47.415Z,71.21
2023-03-02T11:51:23.599Z,70.81
2023-03-02T11:54:03.027Z,71.96
2023-03-02T11:56:33.068Z,72.45
2023-03-02T11:59:05.376Z,73.79
2023-03-02T12:01:35.965Z,73.88
2023-03-02T12:04:26.840Z,74.52
2023-03-02T12:06:54.016Z,74.15
2023-03-02T12:09:23.941Z,76.22
2023-03-02T12:12:17.214Z,75.24
2023-03-02T12:14:44.830Z,75.42
2023-03-02T12:17:27.367Z,75.70
2023-03-02T12:20:08.843Z,76.23
2023-03-02T12:22:37.866Z,76.02
2023-03-02T12:25:27.749Z,76.84
2023-03-02T12:27:56.490Z,75.77
2023-03-02T12:30:27.702Z,82.04
2023-03-02T12:33:20.870Z,85.77
2023-03-02T12:35:50.237Z,71.27
2023-03-02T12:38:27.816Z,67.42
2023-03-02T12:41:03.915Z,69.55
2023-03-02T12:43:34.574Z,70.78
2023-03-02T12:46:16.800Z,71.13
2023-03-02T12:48:58.636Z,71.48
2023-03-02T12:51:50.619Z,70.90
2023-03-02T12:54:21.655Z,71.63
2023-03-02T12:56:49.712Z,70.34
2023-03-02T12:59:28.284Z,72.91
2023-03-02T13:02:11.201Z,72.33
2023-03-02T13:04:38.444Z,71.86
2023-03-02T13:07:07.465Z,73.06
2023-03-02T13:09:36.933Z,73.26
2023-03-02T13:12:05.847Z,74.20
2023-03-02T13:14:33.158Z,74.08
2023-03-02T13:17:05.264Z,74.31
2023-03-02T13:19:34.150Z,75.52
2023-03-02T13:22:01.222Z,74.49
2023-03-02T13:24:46.746Z,75.19
2023-03-02T13:27:20.553Z,74.60
2023-03-02T13:29:48.822Z,74.64
2023-03-02T13:32:28.887Z,74.66
2023-03-02T13:34:59.984Z,75.43
2023-03-02T13:37:41.993Z,75.84
2023-03-02T13:40:34.188Z,75.91
2023-03-02T13:43:01.637Z,77.26
2023-03-02T13:45:30.321Z,76.84
2023-03-02T13:48:03.000Z,76.69
2023-03-02T13:50:32.379Z,77.38
2023-03-02T13:53:06.510Z,77.08
2023-03-02T13:55:34.855Z,77.30
2023-03-02T13:58:02.909Z,77.65
2023-03-02T14:00:34.439Z,80.83
2023-03-02T14:03:02.079Z,79.57
2023-03-02T14:05:35.393Z,79.42
2023-03-02T14:08:07.663Z,79.49
2023-03-02T14:10:34.711Z,78.98
2023-03-02T14:13:19.402Z,79.27
2023-03-02T14:15:53.399Z,78.67
2023-03-02T14:18:26.793Z,79.19
2023-03-02T14:20:53.666Z,78.62
2023-03-02T14:23:20.707Z,79.04
2023-03-02T14:25:49.656Z,78.64
2023-03-02T14:28:33.414Z,79.47
2023-03-02T14:31:00.557Z,80.22
2023-03-02T14:33:28.315Z,80.99
2023-03-02T14:36:02.978Z,81.18
2023-03-02T14:38:30.888Z,80.50
2023-03-02T14:40:58.388Z,80.11
2023-03-02T14:43:25.557Z,80.37
2023-03-02T14:45:53.373Z,79.96
2023-03-02T14:48:20.662Z,79.79
2023-03-02T14:50:53.443Z,79.52
2023-03-02T14:53:28.161Z,78.64
2023-03-02T14:55:55.372Z,78.14
2023-03-02T14:58:31.689Z,78.75
2023-03-02T15:01:00.749Z,78.47
2023-03-02T15:03:28.520Z,78.30
2023-03-02T15:06:01.295Z,79.33
2023-03-02T15:08:29.484Z,77.79
2023-03-02T15:10:56.570Z,78.20
2023-03-02T15:13:23.817Z,78.54
2023-03-02T15:15:52.975Z,78.63
2023-03-02T15:18:20.544Z,78.59
2023-03-02T15:20:47.820Z,78.39
2023-03-02T15:23:14.760Z,79.97
2023-03-02T15:25:43.235Z,77.77
2023-03-02T15:28:11.270Z,77.36
2023-03-02T15:30:38.245Z,77.64
2023-03-02T15:33:08.754Z,77.67
2023-03-02T15:35:41.337Z,76.96
2023-03-02T15:38:27.311Z,77.28
2023-03-02T15:40:54.408Z,77.21
2023-03-02T15:43:24.358Z,76.70
2023-03-02T15:45:51.646Z,76.66
2023-03-02T15:48:18.885Z,75.99
2023-03-02T15:50:56.167Z,76.46
2023-03-02T15:53:23.722Z,78.09
2023-03-02T15:55:51.137Z,78.86
2023-03-02T15:58:19.117Z,78.77
2023-03-02T16:00:46.201Z,79.30
2023-03-02T16:03:14.827Z,78.71
2023-03-02T16:05:42.159Z,80.22
2023-03-02T16:08:09.562Z,78.62
2023-03-02T16:10:37.070Z,78.86
2023-03-02T16:13:07.129Z,79.45
2023-03-02T16:15:40.453Z,79.45
2023-03-02T16:18:08.922Z,79.55
2023-03-02T16:20:39.426Z,79.80
2023-03-02T16:23:10.546Z,79.38
2023-03-02T16:25:40.687Z,79.32
2023-03-02T16:28:08.178Z,80.00
2023-03-02T16:30:35.979Z,79.63
2023-03-02T16:33:06.197Z,78.78
2023-03-02T16:35:37.396Z,79.36
2023-03-02T16:38:05.874Z,78.92
2023-03-02T16:40:33.922Z,79.79
2023-03-02T16:43:01.148Z,79.64
2023-03-02T16:45:28.352Z,80.17
2023-03-02T16:47:55.354Z,79.80
2023-03-02T16:50:22.495Z,79.23
2023-03-02T16:52:49.542Z,80.93
2023-03-02T16:55:19.520Z,80.05
2023-03-02T16:57:46.972Z,80.53
2023-03-02T17:00:19.504Z,79.64
2023-03-02T17:02:47.288Z,79.98
2023-03-02T17:05:16.487Z,80.51
2023-03-02T17:07:43.437Z,79.79
2023-03-02T17:10:14.732Z,80.28
2023-03-02T17:12:41.834Z,80.15
2023-03-02T17:15:13.556Z,81.70
2023-03-02T17:17:41.339Z,81.24
2023-03-02T17:20:11.514Z,80.93
2023-03-02T17:22:39.693Z,80.85
2023-03-02T17:25:07.719Z,81.29
2023-03-02T17:27:35.228Z,81.18
2023-03-02T17:30:02.447Z,81.86
2023-03-02T17:32:29.545Z,81.61
2023-03-02T17:34:56.721Z,82.46
2023-03-02T17:37:26.056Z,82.01
2023-03-02T17:39:53.049Z,82.08
2023-03-02T17:42:20.203Z,81.54
2023-03-02T17:44:47.327Z,82.65
2023-03-02T17:47:18.030Z,81.80
2023-03-02T17:49:45.513Z,81.97
2023-03-02T17:52:13.996Z,82.58
2023-03-02T17:54:42.509Z,82.00
2023-03-02T17:57:10.145Z,81.44
2023-03-02T17:59:38.433Z,81.24
2023-03-02T18:02:05.722Z,81.29
2023-03-02T18:04:32.763Z,80.91
2023-03-02T18:07:02.571Z,82.06
2023-03-02T18:09:29.647Z,81.83
2023-03-02T18:11:56.667Z,80.68
2023-03-02T18:14:28.552Z,81.14
2023-03-02T18:16:55.776Z,81.04
2023-03-02T18:19:23.194Z,79.84
2023-03-02T18:21:50.025Z,78.99
2023-03-02T18:24:16.990Z,80.07
2023-03-02T18:26:44.097Z,79.98
2023-03-02T18:29:11.172Z,80.01
2023-03-02T18:31:38.423Z,78.87
2023-03-02T18:34:05.683Z,78.95
2023-03-02T18:36:32.691Z,78.70
2023-03-02T18:38:59.887Z,79.57
2023-03-02T18:41:28.108Z,80.13
2023-03-02T18:43:55.036Z,77.47
2023-03-02T18:46:28.580Z,77.63
2023-03-02T18:48:56.866Z,77.80
2023-03-02T18:51:25.446Z,79.05
2023-03-02T18:53:53.248Z,79.43
2023-03-02T18:56:22.075Z,78.97
2023-03-02T18:58:50.346Z,79.59
2023-03-02T19:01:17.844Z,79.04
2023-03-02T19:03:46.145Z,79.89
2023-03-02T19:06:14.642Z,80.91
2023-03-02T19:08:42.010Z,80.43
2023-03-02T19:11:09.092Z,81.19
2023-03-02T19:13:36.401Z,80.66
2023-03-02T19:16:04.102Z,81.52
2023-03-02T19:18:31.474Z,81.29
2023-03-02T19:20:58.642Z,82.49
2023-03-02T19:23:26.351Z,81.82
2023-03-02T19:25:53.567Z,82.58
2023-03-02T19:28:21.911Z,82.25
2023-03-02T19:30:49.925Z,82.32
2023-03-02T19:33:18.034Z,83.21
2023-03-02T19:35:45.048Z,82.27
2023-03-02T19:38:12.965Z,81.99
2023-03-02T19:40:40.733Z,81.69
2023-03-02T19:43:07.808Z,81.39
2023-03-02T19:45:36.005Z,81.45
2023-03-02T19:48:04.050Z,81.44
2023-03-02T19:50:31.077Z,82.56
2023-03-02T19:52:59.297Z,83.15
2023-03-02T19:55:27.045Z,82.85
2023-03-02T19:57:59.985Z,82.57
2023-03-02T20:00:29.776Z,83.78
2023-03-02T20:02:57.853Z,83.27
2023-03-02T20:05:27.616Z,82.69
2023-03-02T20:07:55.153Z,81.87
2023-03-02T20:10:37.011Z,81.42
2023-03-02T20:13:06.332Z,81.26
2023-03-02T20:15:38.359Z,81.34
2023-03-02T20:18:08.766Z,80.58
2023-03-02T20:20:36.156Z,80.52
2023-03-02T20:23:04.713Z,80.13
2023-03-02T20:25:31.927Z,79.36
2023-03-02T20:27:58.853Z,79.68
2023-03-02T20:30:37.648Z,78.44
2023-03-02T20:33:07.161Z,78.82
2023-03-02T20:35:40.161Z,77.63
2023-03-02T20:38:20.307Z,77.97
2023-03-02T20:40:47.747Z,77.72
2023-03-02T20:43:15.202Z,77.87
2023-03-02T20:45:42.291Z,77.54
2023-03-02T20:48:10.301Z,77.63
2023-03-02T20:50:37.948Z,77.29
2023-03-02T20:53:06.484Z,77.03
2023-03-02T20:55:33.899Z,76.99
2023-03-02T20:58:01.545Z,77.07
2023-03-02T21:00:32.341Z,76.82
2023-03-02T21:02:59.701Z,77.10
2023-03-02T21:05:27.767Z,77.21
2023-03-02T21:07:55.665Z,77.39
2023-03-02T21:10:30.712Z,76.72
2023-03-02T21:12:57.854Z,77.41
2023-03-02T21:15:27.572Z,77.05
2023-03-02T21:17:55.613Z,77.29
2023-03-02T21:20:25.118Z,76.82
2023-03-02T21:22:51.954Z,76.91
2023-03-02T21:25:19.424Z,77.07
2023-03-02T21:27:46.455Z,76.78
2023-03-02T21:30:19.943Z,76.07
2023-03-02T21:32:48.267Z,76.78
2023-03-02T21:35:20.229Z,76.60
2023-03-02T21:37:49.360Z,76.16
2023-03-02T21:40:21.768Z,76.23
2023-03-02T21:42:49.094Z,75.75
2023-03-02T21:45:16.047Z,76.49
2023-03-02T21:47:43.544Z,75.77
2023-03-02T21:50:15.249Z,75.88
2023-03-02T21:52:42.246Z,76.48
2023-03-02T21:55:10.204Z,77.02
2023-03-02T21:57:37.539Z,76.60
2023-03-02T22:00:05.475Z,76.15
2023-03-02T22:02:33.151Z,76.01
2023-03-02T22:05:00.329Z,76.59
2023-03-02T22:07:28.179Z,76.67
2023-03-02T22:09:55.175Z,75.95
2023-03-02T22:12:23.057Z,76.09
2023-03-02T22:14:53.341Z,75.88
2023-03-02T22:17:24.080Z,75.89
2023-03-02T22:19:52.519Z,76.08
2023-03-02T22:22:26.467Z,76.21
2023-03-02T22:24:54.785Z,76.34
2023-03-02T22:27:29.368Z,75.91
2023-03-02T22:29:59.379Z,76.22
2023-03-02T22:32:29.463Z,75.58
2023-03-02T22:35:02.746Z,76.39
2023-03-02T22:37:34.077Z,76.75
2023-03-02T22:40:07.675Z,77.29
2023-03-02T22:42:34.506Z,77.01
2023-03-02T22:45:16.357Z,77.98
2023-03-02T22:47:48.402Z,77.75
2023-03-02T22:50:27.405Z,78.06
2023-03-02T22:52:56.237Z,78.46
2023-03-02T22:55:42.510Z,78.40
2023-03-02T22:58:27.947Z,79.16
2023-03-02T23:00:55.281Z,78.15
2023-03-02T23:03:28.133Z,78.64
2023-03-02T23:05:55.174Z,79.87
2023-03-02T23:08:30.452Z,78.98
2023-03-02T23:10:59.473Z,78.14
2023-03-02T23:13:38.154Z,79.13
2023-03-02T23:16:24.789Z,78.19
2023-03-02T23:18:54.379Z,78.68
2023-03-02T23:21:28.506Z,78.70
2023-03-02T23:23:55.901Z,78.85
2023-03-02T23:26:22.748Z,78.43
2023-03-02T23:28:50.961Z,77.82
2023-03-02T23:31:18.972Z,78.82
2023-03-02T23:33:46.204Z,78.42
2023-03-02T23:36:14.173Z,78.27
2023-03-02T23:38:41.718Z,78.05
2023-03-02T23:41:09.080Z,77.82
2023-03-02T23:43:36.352Z,77.91
2023-03-02T23:46:03.466Z,77.81
2023-03-02T23:48:35.850Z,78.47
2023-03-02T23:51:02.715Z,77.96
2023-03-02T23:53:33.015Z,77.21
2023-03-02T23:56:00.065Z,78.81
2023-03-02T23:58:26.985Z,77.73
